Thursday, April 26, 2018, 4:47 PM EDT
Back to Local

KFME, Fort Meade / Tipton

Location: Laurel, MD, United States Lat: 39.083
Local Time: 4:47 PM EDT (20:47 GMT) Lon: -76.767
Time Zone: US/Eastern Elev: 150 ft

Show me the last for .
Show Coded

Time T Td Feel RH Dir Speed Gust Alt SLP Vis Weather Sky Remarks
2018-04-26 16:36 68 34 - 28 - Calm - 29.85 - 10 CLR None
2018-04-26 16:15 68 34 - 28 310° 6 - 29.86 - 10 CLR None
2018-04-26 15:57 68 34 - 28 290° 6 17 29.86 - 10 CLR None
2018-04-26 15:36 68 36 - 30 260° 13 - 29.86 - 10 CLR None
2018-04-26 15:15 68 36 - 30 280° 10 - 29.87 - 10 CLR None
2018-04-26 14:57 68 36 - 30 320° 5 - 29.87 - 10 CLR None
2018-04-26 14:36 68 36 - 30 240° 9 - 29.87 - 10 CLR None
2018-04-26 14:15 66 37 - 34 310° 8 - 29.87 - 10 CLR None
2018-04-26 13:57 66 37 - 34 280° 9 - 29.88 - 10 CLR None
2018-04-26 13:36 64 37 - 36 300° 13 17 29.88 - 10 CLR None
2018-04-26 13:15 64 37 - 36 310° 13 16 29.88 - 10 CLR None
2018-04-26 12:57 64 39 - 39 270° 12 21 29.88 - 10 CLR None
2018-04-26 12:36 63 41 - 45 300° 9 - 29.88 - 10 CLR None
2018-04-26 12:15 63 41 - 45 290° 12 17 29.89 - 10 CLR None
2018-04-26 11:57 63 41 - 45 310° 6 16 29.89 - 10 CLR None
2018-04-26 11:36 61 41 - 48 300° 7 16 29.90 - 10 CLR None
2018-04-26 11:15 59 39 - 47 280° 9 - 29.90 - 10 CLR None
2018-04-26 10:57 61 41 - 48 280° 8 - 29.90 - 10 CLR None
2018-04-26 10:36 57 37 - 47 290° 12 16 29.89 - 10 CLR None
2018-04-26 10:15 57 41 - 54 300° 9 - 29.89 - 10 CLR None
2018-04-26 09:57 55 39 - 54 270° 10 - 29.90 - 10 CLR None
2018-04-26 09:36 55 39 - 54 280° 14 17 29.89 - 10 CLR None
2018-04-26 09:15 54 39 - 58 300° 9 17 29.88 - 10 CLR None
2018-04-26 08:57 54 39 - 58 280° 13 18 29.88 - 10 CLR None
2018-04-26 08:36 52 39 - 62 300° 15 21 29.88 - 10 CLR None
2018-04-26 08:15 52 37 - 57 280° 10 18 29.88 - 10 CLR None
2018-04-26 07:57 50 37 44 61 300° 13 20 29.86 - 10 CLR None
2018-04-26 07:36 50 37 46 61 300° 10 - 29.85 - 10 CLR None
2018-04-26 07:15 48 37 42 66 310° 12 18 29.84 - 10 CLR None
2018-04-26 06:57 46 37 39 70 300° 10 20 29.83 - 10 CLR None
2018-04-26 06:36 45 37 37 75 290° 9 16 29.83 - 10 CLR None
2018-04-26 06:15 43 37 38 81 290° 8 - 29.82 - 10 CLR None
2018-04-26 05:57 45 37 41 75 290° 7 - 29.82 - 10 CLR None
2018-04-26 05:36 45 37 42 75 280° 5 - 29.83 - 10 CLR None
2018-04-26 05:15 45 39 41 81 270° 6 - 29.83 - 10 CLR None
2018-04-26 04:57 45 39 41 81 270° 7 - 29.83 - 10 CLR None
2018-04-26 04:36 46 39 42 75 270° 9 - 29.83 - 10 CLR None
2018-04-26 04:15 46 39 40 75 270° 8 16 29.83 - 10 CLR None
2018-04-26 03:57 48 41 42 76 290° 9 17 29.81 - 10 CLR None
2018-04-26 03:51 48 41 41 76 290° 12 22 29.81 - 10 CLR None
2018-04-26 03:36 50 41 43 71 290° 12 21 29.79 - 10 CLR None
2018-04-26 02:36 54 48 - 81 290° 10 - 29.76 - 10 CLR None
2018-04-26 02:15 54 50 - 87 290° 8 - 29.76 - 10 CLR None
2018-04-26 01:57 54 50 - 87 290° 6 - 29.76 - 10 CLR None
2018-04-26 01:36 55 50 - 82 290° 8 - 29.76 - 10 CLR None
2018-04-26 01:15 54 50 - 87 310° 10 16 29.76 - 10 CLR None
2018-04-26 00:57 54 52 - 93 300° 13 23 29.75 - 10 CLR None
2018-04-26 00:36 54 52 - 93 290° 6 - 29.75 - 7 CLR None
2018-04-26 00:15 54 52 - 93 280° 5 - 29.75 - 10 CLR None
2018-04-25 23:57 54 52 - 93 290° 3 - 29.75 - 7 CLR None
2018-04-25 23:36 52 52 - 100 - Calm - 29.75 - 1 VV007 None
2018-04-25 23:15 54 52 - 93 - Calm - 29.75 - 5 SCT043 SCT050 None
2018-04-25 22:57 54 54 - 100 - Calm - 29.75 - 5 SCT043 SCT055 None
2018-04-25 22:36 55 54 - 93 - Calm - 29.75 - 10 SCT110 None
2018-04-25 22:15 57 55 - 93 - Calm - 29.75 - 10 BKN100 None
2018-04-25 21:57 57 55 - 93 - Calm - 29.75 - 10 BKN080 OVC100 None
2018-04-25 21:36 59 55 - 87 - Calm - 29.75 - 10 OVC070 None
2018-04-25 21:15 59 55 - 87 300° 3 - 29.75 - 10 OVC070 None
2018-04-25 20:57 59 55 - 87 290° 3 - 29.75 - 10 SCT050 BKN060 OVC095 None
2018-04-25 20:36 59 55 - 87 - Calm - 29.74 - 10 SCT039 BKN050 OVC070 None
2018-04-25 20:15 61 55 - 82 310° 5 - 29.73 - 10 SCT037 OVC046 None
2018-04-25 19:57 61 55 - 82 310° 6 - 29.72 - 10 SCT039 OVC045 None
2018-04-25 19:36 61 55 - 82 310° 3 - 29.71 - 10 SCT025 BKN037 OVC045 None
2018-04-25 19:15 63 55 - 77 310° 7 - 29.71 - 10 OVC023 None
2018-04-25 18:57 63 55 - 77 320° 8 - 29.70 - 10 OVC023 None
2018-04-25 18:36 63 55 - 77 310° 6 - 29.70 - 10 OVC021 None
2018-04-25 18:15 63 57 - 82 290° 9 - 29.70 - 10 BKN023 OVC029 None
2018-04-25 17:57 63 57 - 82 310° 5 - 29.70 - 10 BKN023 OVC030 None
2018-04-25 17:36 63 57 - 82 310° 6 - 29.70 - 10 OVC019 None
2018-04-25 17:15 64 59 - 82 310° 7 - 29.70 - 10 BKN020 OVC025 None
2018-04-25 16:57 64 57 - 77 340° 5 - 29.70 - 10 OVC022 None

Support USWX by starting your Amazon purchase here.